sensor_id;sensor_type;location;lat;lon;timestamp;pressure;altitude;pressure_sealevel;temperature;humidity
73974;BME280;62336;-26.094;27.994;2023-05-22T00:00:33;84892.12;;;23.18;15.38
73974;BME280;62336;-26.094;27.994;2023-05-22T00:02:59;84894.68;;;23.20;14.74
73974;BME280;62336;-26.094;27.994;2023-05-22T00:05:25;84894.32;;;23.05;14.52
73974;BME280;62336;-26.094;27.994;2023-05-22T00:07:50;84893.41;;;23.20;14.65
73974;BME280;62336;-26.094;27.994;2023-05-22T00:10:15;84892.06;;;23.19;14.02
73974;BME280;62336;-26.094;27.994;2023-05-22T00:12:41;84891.33;;;22.95;13.91
73974;BME280;62336;-26.094;27.994;2023-05-22T00:15:06;84888.02;;;22.79;13.59
73974;BME280;62336;-26.094;27.994;2023-05-22T00:17:31;84887.58;;;22.80;13.67
73974;BME280;62336;-26.094;27.994;2023-05-22T00:19:56;84887.28;;;22.84;13.72
73974;BME280;62336;-26.094;27.994;2023-05-22T00:22:22;84884.50;;;22.75;13.58
73974;BME280;62336;-26.094;27.994;2023-05-22T00:24:47;84883.04;;;23.14;13.46
73974;BME280;62336;-26.094;27.994;2023-05-22T00:27:13;84885.90;;;23.09;13.31
73974;BME280;62336;-26.094;27.994;2023-05-22T00:29:38;84885.60;;;22.90;13.42
73974;BME280;62336;-26.094;27.994;2023-05-22T00:32:05;84887.81;;;22.97;13.40
73974;BME280;62336;-26.094;27.994;2023-05-22T00:34:29;84888.16;;;22.99;13.31
73974;BME280;62336;-26.094;27.994;2023-05-22T00:36:54;84888.25;;;22.97;13.24
73974;BME280;62336;-26.094;27.994;2023-05-22T00:39:19;84891.25;;;23.12;13.30
73974;BME280;62336;-26.094;27.994;2023-05-22T00:41:45;84887.64;;;23.04;13.30
73974;BME280;62336;-26.094;27.994;2023-05-22T00:44:10;84887.26;;;23.21;13.12
73974;BME280;62336;-26.094;27.994;2023-05-22T00:46:35;84888.95;;;23.29;13.15
73974;BME280;62336;-26.094;27.994;2023-05-22T00:49:00;84890.30;;;23.36;13.41
73974;BME280;62336;-26.094;27.994;2023-05-22T00:51:26;84892.77;;;23.36;13.42
73974;BME280;62336;-26.094;27.994;2023-05-22T00:53:51;84895.89;;;23.42;14.16
73974;BME280;62336;-26.094;27.994;2023-05-22T00:56:17;84894.90;;;23.52;13.86
73974;BME280;62336;-26.094;27.994;2023-05-22T00:58:42;84893.46;;;23.45;13.58
73974;BME280;62336;-26.094;27.994;2023-05-22T01:01:06;84889.90;;;23.21;14.27
73974;BME280;62336;-26.094;27.994;2023-05-22T01:03:31;84887.07;;;23.55;13.39
73974;BME280;62336;-26.094;27.994;2023-05-22T01:05:56;84884.74;;;23.04;13.30
73974;BME280;62336;-26.094;27.994;2023-05-22T01:08:21;84879.88;;;23.53;13.31
73974;BME280;62336;-26.094;27.994;2023-05-22T01:10:49;84876.76;;;23.44;13.30
73974;BME280;62336;-26.094;27.994;2023-05-22T01:13:20;84875.10;;;23.29;13.66
73974;BME280;62336;-26.094;27.994;2023-05-22T01:15:42;84882.62;;;23.43;13.72
73974;BME280;62336;-26.094;27.994;2023-05-22T01:18:09;84883.05;;;23.34;13.69
73974;BME280;62336;-26.094;27.994;2023-05-22T01:20:31;84880.44;;;23.74;13.60
73974;BME280;62336;-26.094;27.994;2023-05-22T01:23:13;84878.54;;;23.40;13.96
73974;BME280;62336;-26.094;27.994;2023-05-22T01:30:22;84887.60;;;23.54;14.15
73974;BME280;62336;-26.094;27.994;2023-05-22T01:32:36;84885.08;;;23.58;13.67
73974;BME280;62336;-26.094;27.994;2023-05-22T01:35:02;84882.74;;;23.49;13.74
73974;BME280;62336;-26.094;27.994;2023-05-22T01:37:25;84883.22;;;23.54;13.64
73974;BME280;62336;-26.094;27.994;2023-05-22T01:39:51;84881.10;;;23.27;13.66
73974;BME280;62336;-26.094;27.994;2023-05-22T01:42:15;84879.92;;;23.09;13.58
73974;BME280;62336;-26.094;27.994;2023-05-22T01:44:41;84878.23;;;23.52;13.63
73974;BME280;62336;-26.094;27.994;2023-05-22T01:47:07;84874.80;;;22.97;13.71
73974;BME280;62336;-26.094;27.994;2023-05-22T01:49:32;84876.75;;;23.20;13.76
73974;BME280;62336;-26.094;27.994;2023-05-22T01:52:04;84876.34;;;23.13;14.01
73974;BME280;62336;-26.094;27.994;2023-05-22T01:54:29;84878.68;;;22.60;14.14
73974;BME280;62336;-26.094;27.994;2023-05-22T01:56:54;84881.26;;;22.94;14.23
73974;BME280;62336;-26.094;27.994;2023-05-22T01:59:20;84881.57;;;23.00;14.37
73974;BME280;62336;-26.094;27.994;2023-05-22T02:01:39;84878.62;;;23.02;14.22
73974;BME280;62336;-26.094;27.994;2023-05-22T02:04:04;84878.66;;;23.00;14.37
73974;BME280;62336;-26.094;27.994;2023-05-22T02:06:30;84876.07;;;22.53;14.49
73974;BME280;62336;-26.094;27.994;2023-05-22T02:08:54;84877.93;;;22.51;14.45
73974;BME280;62336;-26.094;27.994;2023-05-22T02:11:20;84876.54;;;22.79;14.35
73974;BME280;62336;-26.094;27.994;2023-05-22T02:13:44;84877.21;;;22.37;14.63
73974;BME280;62336;-26.094;27.994;2023-05-22T02:16:10;84874.78;;;22.82;14.59
73974;BME280;62336;-26.094;27.994;2023-05-22T02:18:34;84872.86;;;22.74;14.59
73974;BME280;62336;-26.094;27.994;2023-05-22T02:21:00;84869.60;;;22.65;14.60
73974;BME280;62336;-26.094;27.994;2023-05-22T02:23:25;84872.97;;;22.61;14.50
73974;BME280;62336;-26.094;27.994;2023-05-22T02:25:50;84875.89;;;22.23;14.43
73974;BME280;62336;-26.094;27.994;2023-05-22T02:28:15;84878.00;;;22.18;14.53
73974;BME280;62336;-26.094;27.994;2023-05-22T02:30:41;84873.12;;;22.49;14.56
73974;BME280;62336;-26.094;27.994;2023-05-22T02:33:05;84867.74;;;22.44;14.42
73974;BME280;62336;-26.094;27.994;2023-05-22T02:35:30;84866.35;;;22.41;14.71
73974;BME280;62336;-26.094;27.994;2023-05-22T02:37:56;84868.37;;;22.59;14.56
73974;BME280;62336;-26.094;27.994;2023-05-22T02:40:21;84866.16;;;22.55;14.55
73974;BME280;62336;-26.094;27.994;2023-05-22T02:42:46;84866.31;;;22.43;14.68
73974;BME280;62336;-26.094;27.994;2023-05-22T02:45:11;84866.11;;;22.31;14.66
73974;BME280;62336;-26.094;27.994;2023-05-22T02:47:36;84869.50;;;22.35;14.51
73974;BME280;62336;-26.094;27.994;2023-05-22T02:50:01;84870.52;;;22.50;14.79
73974;BME280;62336;-26.094;27.994;2023-05-22T02:52:26;84870.69;;;22.48;14.59
73974;BME280;62336;-26.094;27.994;2023-05-22T02:54:51;84868.71;;;22.27;14.62
73974;BME280;62336;-26.094;27.994;2023-05-22T02:57:16;84871.07;;;21.94;14.64
73974;BME280;62336;-26.094;27.994;2023-05-22T02:59:42;84875.61;;;22.12;14.56
73974;BME280;62336;-26.094;27.994;2023-05-22T03:02:07;84878.07;;;22.08;14.59
73974;BME280;62336;-26.094;27.994;2023-05-22T03:04:31;84879.89;;;22.35;14.43
73974;BME280;62336;-26.094;27.994;2023-05-22T03:06:56;84881.81;;;21.93;14.41
73974;BME280;62336;-26.094;27.994;2023-05-22T03:09:21;84880.38;;;22.41;14.28
73974;BME280;62336;-26.094;27.994;2023-05-22T03:11:46;84874.75;;;22.41;14.16
73974;BME280;62336;-26.094;27.994;2023-05-22T03:14:12;84873.13;;;22.35;14.07
73974;BME280;62336;-26.094;27.994;2023-05-22T03:16:37;84874.79;;;22.38;14.09
73974;BME280;62336;-26.094;27.994;2023-05-22T03:19:09;84880.41;;;22.35;13.99
73974;BME280;62336;-26.094;27.994;2023-05-22T03:21:27;84883.18;;;22.53;14.11
73974;BME280;62336;-26.094;27.994;2023-05-22T03:23:52;84880.87;;;22.94;14.30
73974;BME280;62336;-26.094;27.994;2023-05-22T03:26:18;84884.38;;;22.67;14.29
73974;BME280;62336;-26.094;27.994;2023-05-22T03:28:43;84888.09;;;22.58;14.28
73974;BME280;62336;-26.094;27.994;2023-05-22T03:31:07;84896.02;;;22.35;14.44
73974;BME280;62336;-26.094;27.994;2023-05-22T03:33:32;84896.61;;;22.49;14.51
73974;BME280;62336;-26.094;27.994;2023-05-22T03:35:57;84890.02;;;22.74;14.46
73974;BME280;62336;-26.094;27.994;2023-05-22T03:38:23;84885.97;;;22.35;14.27
73974;BME280;62336;-26.094;27.994;2023-05-22T03:40:48;84888.97;;;22.43;14.24
73974;BME280;62336;-26.094;27.994;2023-05-22T03:43:13;84896.17;;;21.98;14.23
73974;BME280;62336;-26.094;27.994;2023-05-22T03:45:38;84896.75;;;22.54;14.15
73974;BME280;62336;-26.094;27.994;2023-05-22T03:48:03;84893.58;;;22.07;14.29
73974;BME280;62336;-26.094;27.994;2023-05-22T03:50:28;84894.85;;;22.57;14.79
73974;BME280;62336;-26.094;27.994;2023-05-22T03:52:53;84897.50;;;22.61;14.67
73974;BME280;62336;-26.094;27.994;2023-05-22T03:55:18;84902.03;;;22.48;14.72
73974;BME280;62336;-26.094;27.994;2023-05-22T03:57:43;84908.20;;;22.61;14.81
73974;BME280;62336;-26.094;27.994;2023-05-22T04:00:09;84912.31;;;22.75;15.32
73974;BME280;62336;-26.094;27.994;2023-05-22T04:02:33;84912.04;;;22.74;14.78
73974;BME280;62336;-26.094;27.994;2023-05-22T04:04:58;84913.80;;;22.35;14.53
73974;BME280;62336;-26.094;27.994;2023-05-22T04:07:23;84917.38;;;22.78;14.46
73974;BME280;62336;-26.094;27.994;2023-05-22T04:09:49;84922.46;;;22.62;14.50
73974;BME280;62336;-26.094;27.994;2023-05-22T04:12:14;84928.77;;;22.71;14.22
73974;BME280;62336;-26.094;27.994;2023-05-22T04:14:40;84926.70;;;22.32;14.47
73974;BME280;62336;-26.094;27.994;2023-05-22T04:17:05;84928.62;;;22.65;14.38
73974;BME280;62336;-26.094;27.994;2023-05-22T04:19:29;84927.38;;;22.53;14.32
73974;BME280;62336;-26.094;27.994;2023-05-22T04:21:56;84925.06;;;22.21;14.73
73974;BME280;62336;-26.094;27.994;2023-05-22T04:24:19;84929.68;;;22.55;15.06
73974;BME280;62336;-26.094;27.994;2023-05-22T04:26:45;84936.42;;;22.48;14.82
73974;BME280;62336;-26.094;27.994;2023-05-22T04:29:10;84934.41;;;22.55;14.97
73974;BME280;62336;-26.094;27.994;2023-05-22T04:31:35;84938.91;;;22.31;14.73
73974;BME280;62336;-26.094;27.994;2023-05-22T04:34:00;84942.40;;;22.47;14.73
73974;BME280;62336;-26.094;27.994;2023-05-22T04:36:25;84945.99;;;22.31;14.72
73974;BME280;62336;-26.094;27.994;2023-05-22T04:38:50;84946.22;;;22.11;15.31
73974;BME280;62336;-26.094;27.994;2023-05-22T04:41:16;84950.31;;;22.54;14.91
73974;BME280;62336;-26.094;27.994;2023-05-22T04:43:41;84952.85;;;22.20;15.15
73974;BME280;62336;-26.094;27.994;2023-05-22T04:46:05;84954.67;;;21.99;15.34
73974;BME280;62336;-26.094;27.994;2023-05-22T04:48:30;84956.69;;;22.17;15.52
73974;BME280;62336;-26.094;27.994;2023-05-22T04:50:56;84964.04;;;22.24;15.65
73974;BME280;62336;-26.094;27.994;2023-05-22T04:53:20;84967.32;;;22.09;14.97
73974;BME280;62336;-26.094;27.994;2023-05-22T04:55:45;84972.93;;;22.28;15.14
73974;BME280;62336;-26.094;27.994;2023-05-22T04:58:10;84974.76;;;21.86;15.47
73974;BME280;62336;-26.094;27.994;2023-05-22T05:00:35;84977.98;;;22.03;15.45
73974;BME280;62336;-26.094;27.994;2023-05-22T05:03:01;84979.94;;;22.06;15.84
73974;BME280;62336;-26.094;27.994;2023-05-22T05:05:26;84980.92;;;22.11;15.69
73974;BME280;62336;-26.094;27.994;2023-05-22T05:07:52;84983.44;;;21.91;15.33
73974;BME280;62336;-26.094;27.994;2023-05-22T05:10:18;84984.37;;;22.08;15.72
73974;BME280;62336;-26.094;27.994;2023-05-22T05:12:43;84981.37;;;21.82;15.84
73974;BME280;62336;-26.094;27.994;2023-05-22T05:15:09;84982.26;;;22.22;15.93
73974;BME280;62336;-26.094;27.994;2023-05-22T05:17:33;84981.72;;;22.51;15.86
73974;BME280;62336;-26.094;27.994;2023-05-22T05:19:59;84982.41;;;22.26;15.19
73974;BME280;62336;-26.094;27.994;2023-05-22T05:22:24;84985.08;;;22.34;15.90
73974;BME280;62336;-26.094;27.994;2023-05-22T05:24:50;84988.92;;;22.06;16.06
73974;BME280;62336;-26.094;27.994;2023-05-22T05:27:15;84995.94;;;22.41;16.19
73974;BME280;62336;-26.094;27.994;2023-05-22T05:29:41;85000.77;;;22.24;15.84
73974;BME280;62336;-26.094;27.994;2023-05-22T05:32:07;84995.25;;;22.07;15.72
73974;BME280;62336;-26.094;27.994;2023-05-22T05:34:32;84995.84;;;22.14;15.70
73974;BME280;62336;-26.094;27.994;2023-05-22T05:36:57;85001.03;;;22.12;16.09
73974;BME280;62336;-26.094;27.994;2023-05-22T05:39:23;85002.91;;;21.93;15.87
73974;BME280;62336;-26.094;27.994;2023-05-22T05:41:49;85004.07;;;22.50;15.99
73974;BME280;62336;-26.094;27.994;2023-05-22T05:44:13;85006.63;;;22.38;15.89
73974;BME280;62336;-26.094;27.994;2023-05-22T05:46:39;85008.66;;;22.00;15.93
73974;BME280;62336;-26.094;27.994;2023-05-22T05:49:06;85008.02;;;22.39;15.93
73974;BME280;62336;-26.094;27.994;2023-05-22T05:51:29;85011.19;;;21.53;16.37
73974;BME280;62336;-26.094;27.994;2023-05-22T05:53:55;85012.22;;;20.05;17.17
73974;BME280;62336;-26.094;27.994;2023-05-22T05:56:20;85011.48;;;19.85;17.44
73974;BME280;62336;-26.094;27.994;2023-05-22T05:58:46;85011.27;;;19.71;17.49
73974;BME280;62336;-26.094;27.994;2023-05-22T06:01:11;85013.41;;;19.84;17.59
73974;BME280;62336;-26.094;27.994;2023-05-22T06:03:36;85014.44;;;20.11;17.40
73974;BME280;62336;-26.094;27.994;2023-05-22T06:06:02;85014.04;;;20.56;17.29
73974;BME280;62336;-26.094;27.994;2023-05-22T06:08:27;85013.03;;;20.48;17.54
73974;BME280;62336;-26.094;27.994;2023-05-22T06:10:53;85014.15;;;20.80;17.02
73974;BME280;62336;-26.094;27.994;2023-05-22T06:13:18;85021.05;;;21.27;17.74
73974;BME280;62336;-26.094;27.994;2023-05-22T06:15:43;85023.64;;;20.70;17.30
73974;BME280;62336;-26.094;27.994;2023-05-22T06:18:08;85026.01;;;21.72;17.63
73974;BME280;62336;-26.094;27.994;2023-05-22T06:20:33;85026.33;;;21.65;16.82
73974;BME280;62336;-26.094;27.994;2023-05-22T06:22:58;85032.01;;;21.87;16.80
73974;BME280;62336;-26.094;27.994;2023-05-22T06:25:23;85035.53;;;22.02;16.49
73974;BME280;62336;-26.094;27.994;2023-05-22T06:27:49;85040.96;;;22.16;17.10
73974;BME280;62336;-26.094;27.994;2023-05-22T06:30:14;85043.44;;;22.58;15.67
73974;BME280;62336;-26.094;27.994;2023-05-22T06:32:40;85044.85;;;22.78;15.90
73974;BME280;62336;-26.094;27.994;2023-05-22T06:35:05;85051.96;;;23.23;14.52
73974;BME280;62336;-26.094;27.994;2023-05-22T06:37:30;85053.18;;;23.28;14.52
73974;BME280;62336;-26.094;27.994;2023-05-22T06:39:56;85050.69;;;23.22;15.03
73974;BME280;62336;-26.094;27.994;2023-05-22T06:42:21;85055.93;;;23.11;14.93
73974;BME280;62336;-26.094;27.994;2023-05-22T06:44:47;85053.79;;;23.37;14.51
73974;BME280;62336;-26.094;27.994;2023-05-22T06:47:12;85057.25;;;23.29;14.28
73974;BME280;62336;-26.094;27.994;2023-05-22T06:49:37;85061.46;;;23.30;13.89
73974;BME280;62336;-26.094;27.994;2023-05-22T06:52:03;85063.76;;;23.79;14.12
73974;BME280;62336;-26.094;27.994;2023-05-22T06:54:28;85066.91;;;24.06;13.14
73974;BME280;62336;-26.094;27.994;2023-05-22T06:56:53;85067.48;;;23.99;14.26
73974;BME280;62336;-26.094;27.994;2023-05-22T06:59:20;85067.18;;;24.38;13.25
73974;BME280;62336;-26.094;27.994;2023-05-22T07:01:44;85070.50;;;24.54;12.32
73974;BME280;62336;-26.094;27.994;2023-05-22T07:04:08;85070.24;;;24.78;12.84
73974;BME280;62336;-26.094;27.994;2023-05-22T07:06:33;85068.77;;;25.11;12.51
73974;BME280;62336;-26.094;27.994;2023-05-22T07:08:58;85071.62;;;25.12;12.91
73974;BME280;62336;-26.094;27.994;2023-05-22T07:11:23;85072.37;;;25.12;12.55
73974;BME280;62336;-26.094;27.994;2023-05-22T07:13:49;85076.05;;;25.29;11.73
73974;BME280;62336;-26.094;27.994;2023-05-22T07:16:15;85075.61;;;25.88;10.89
73974;BME280;62336;-26.094;27.994;2023-05-22T07:18:41;85074.83;;;25.84;10.68
73974;BME280;62336;-26.094;27.994;2023-05-22T07:21:06;85076.60;;;25.88;10.26
73974;BME280;62336;-26.094;27.994;2023-05-22T07:23:31;85075.41;;;26.34;10.23
73974;BME280;62336;-26.094;27.994;2023-05-22T07:25:56;85077.09;;;26.14;10.73
73974;BME280;62336;-26.094;27.994;2023-05-22T07:28:21;85075.18;;;26.67;10.21
73974;BME280;62336;-26.094;27.994;2023-05-22T07:30:46;85073.75;;;26.72;10.96
73974;BME280;62336;-26.094;27.994;2023-05-22T07:33:11;85075.50;;;26.45;10.85
73974;BME280;62336;-26.094;27.994;2023-05-22T07:35:36;85079.11;;;26.53;11.13
73974;BME280;62336;-26.094;27.994;2023-05-22T07:38:01;85084.48;;;27.04;10.86
73974;BME280;62336;-26.094;27.994;2023-05-22T07:40:26;85085.75;;;27.09;10.71
73974;BME280;62336;-26.094;27.994;2023-05-22T07:42:51;85087.33;;;27.19;10.42
73974;BME280;62336;-26.094;27.994;2023-05-22T07:45:17;85089.35;;;27.11;10.59
73974;BME280;62336;-26.094;27.994;2023-05-22T07:47:43;85086.38;;;27.28;10.82
73974;BME280;62336;-26.094;27.994;2023-05-22T07:50:09;85087.89;;;27.77;10.60
73974;BME280;62336;-26.094;27.994;2023-05-22T07:52:35;85089.58;;;27.97;9.99
73974;BME280;62336;-26.094;27.994;2023-05-22T07:55:00;85085.37;;;28.22;10.18
73974;BME280;62336;-26.094;27.994;2023-05-22T07:57:26;85084.27;;;27.99;10.21
73974;BME280;62336;-26.094;27.994;2023-05-22T07:59:52;85086.84;;;28.40;10.68
73974;BME280;62336;-26.094;27.994;2023-05-22T08:02:18;85086.64;;;28.87;10.21
73974;BME280;62336;-26.094;27.994;2023-05-22T08:04:44;85084.80;;;28.91;9.32
73974;BME280;62336;-26.094;27.994;2023-05-22T08:07:10;85081.65;;;28.46;9.82
73974;BME280;62336;-26.094;27.994;2023-05-22T08:09:36;85088.15;;;28.88;9.61
73974;BME280;62336;-26.094;27.994;2023-05-22T08:12:00;85089.18;;;29.21;9.33
73974;BME280;62336;-26.094;27.994;2023-05-22T08:14:26;85091.05;;;28.89;8.84
73974;BME280;62336;-26.094;27.994;2023-05-22T08:16:51;85097.72;;;29.32;9.06
73974;BME280;62336;-26.094;27.994;2023-05-22T08:19:17;85099.27;;;29.21;8.94
73974;BME280;62336;-26.094;27.994;2023-05-22T08:21:43;85101.45;;;29.26;9.04
73974;BME280;62336;-26.094;27.994;2023-05-22T08:24:09;85097.64;;;29.37;9.39
73974;BME280;62336;-26.094;27.994;2023-05-22T08:26:35;85095.68;;;29.15;8.69
73974;BME280;62336;-26.094;27.994;2023-05-22T08:29:01;85092.92;;;29.33;8.43
73974;BME280;62336;-26.094;27.994;2023-05-22T08:31:26;85091.92;;;29.53;8.51
73974;BME280;62336;-26.094;27.994;2023-05-22T08:33:52;85086.79;;;29.86;8.84
73974;BME280;62336;-26.094;27.994;2023-05-22T08:36:17;85082.11;;;30.07;9.18
73974;BME280;62336;-26.094;27.994;2023-05-22T08:38:42;85083.36;;;30.06;8.79
73974;BME280;62336;-26.094;27.994;2023-05-22T08:41:08;85081.83;;;30.14;8.81
73974;BME280;62336;-26.094;27.994;2023-05-22T08:43:34;85079.48;;;30.47;8.71
73974;BME280;62336;-26.094;27.994;2023-05-22T08:46:03;85078.56;;;30.04;8.73
73974;BME280;62336;-26.094;27.994;2023-05-22T08:48:28;85069.72;;;30.27;8.05
73974;BME280;62336;-26.094;27.994;2023-05-22T08:50:53;85067.42;;;30.29;8.40
73974;BME280;62336;-26.094;27.994;2023-05-22T08:53:16;85066.43;;;29.76;8.57
73974;BME280;62336;-26.094;27.994;2023-05-22T08:55:42;85061.05;;;30.59;8.55
73974;BME280;62336;-26.094;27.994;2023-05-22T08:58:08;85055.95;;;30.36;8.49
73974;BME280;62336;-26.094;27.994;2023-05-22T09:00:33;85051.05;;;30.30;8.64
73974;BME280;62336;-26.094;27.994;2023-05-22T09:02:59;85050.61;;;30.38;8.26
73974;BME280;62336;-26.094;27.994;2023-05-22T09:05:25;85048.24;;;30.32;8.04
73974;BME280;62336;-26.094;27.994;2023-05-22T09:07:51;85043.67;;;30.62;8.30
73974;BME280;62336;-26.094;27.994;2023-05-22T09:10:16;85041.94;;;30.30;7.85
73974;BME280;62336;-26.094;27.994;2023-05-22T09:15:08;85040.00;;;30.82;8.19
73974;BME280;62336;-26.094;27.994;2023-05-22T09:17:32;85040.72;;;30.94;7.99
73974;BME280;62336;-26.094;27.994;2023-05-22T09:19:59;85038.62;;;31.07;7.96
73974;BME280;62336;-26.094;27.994;2023-05-22T09:22:24;85036.62;;;30.87;8.03
73974;BME280;62336;-26.094;27.994;2023-05-22T09:24:48;85039.67;;;31.04;7.92
73974;BME280;62336;-26.094;27.994;2023-05-22T09:27:13;85041.59;;;31.50;7.49
73974;BME280;62336;-26.094;27.994;2023-05-22T09:29:47;85045.04;;;31.48;7.36
73974;BME280;62336;-26.094;27.994;2023-05-22T09:32:12;85046.00;;;31.47;7.06
73974;BME280;62336;-26.094;27.994;2023-05-22T09:34:31;85041.35;;;31.45;7.32
73974;BME280;62336;-26.094;27.994;2023-05-22T09:37:01;85034.13;;;31.65;7.34
73974;BME280;62336;-26.094;27.994;2023-05-22T09:39:37;85033.80;;;31.80;7.42
73974;BME280;62336;-26.094;27.994;2023-05-22T09:41:49;85030.97;;;32.26;7.48
73974;BME280;62336;-26.094;27.994;2023-05-22T09:44:15;85033.49;;;32.07;7.47
73974;BME280;62336;-26.094;27.994;2023-05-22T09:46:41;85030.12;;;31.42;7.62
73974;BME280;62336;-26.094;27.994;2023-05-22T09:49:06;85031.02;;;31.92;7.44
73974;BME280;62336;-26.094;27.994;2023-05-22T09:51:33;85025.30;;;32.00;7.06
73974;BME280;62336;-26.094;27.994;2023-05-22T09:54:02;85026.03;;;31.72;8.76
73974;BME280;62336;-26.094;27.994;2023-05-22T09:56:22;85023.50;;;31.89;7.66
73974;BME280;62336;-26.094;27.994;2023-05-22T09:58:47;85016.53;;;31.42;7.69
73974;BME280;62336;-26.094;27.994;2023-05-22T10:01:14;85016.16;;;32.01;7.98
73974;BME280;62336;-26.094;27.994;2023-05-22T10:03:38;85015.24;;;31.38;7.43
73974;BME280;62336;-26.094;27.994;2023-05-22T10:06:04;85013.88;;;31.93;7.49
73974;BME280;62336;-26.094;27.994;2023-05-22T10:08:28;85016.75;;;32.00;7.36
73974;BME280;62336;-26.094;27.994;2023-05-22T10:10:53;85013.07;;;31.80;7.69
73974;BME280;62336;-26.094;27.994;2023-05-22T10:13:19;85012.12;;;31.50;7.86
73974;BME280;62336;-26.094;27.994;2023-05-22T10:15:45;85014.68;;;31.73;7.90
73974;BME280;62336;-26.094;27.994;2023-05-22T10:18:09;85009.67;;;31.64;8.13
73974;BME280;62336;-26.094;27.994;2023-05-22T10:20:34;85011.94;;;31.95;7.62
73974;BME280;62336;-26.094;27.994;2023-05-22T10:23:02;85009.40;;;31.49;8.34
73974;BME280;62336;-26.094;27.994;2023-05-22T10:25:25;85009.16;;;31.85;8.30
73974;BME280;62336;-26.094;27.994;2023-05-22T10:27:52;85006.77;;;31.84;7.81
73974;BME280;62336;-26.094;27.994;2023-05-22T10:30:22;85001.45;;;32.32;7.76
73974;BME280;62336;-26.094;27.994;2023-05-22T10:32:46;85003.72;;;32.44;8.59
73974;BME280;62336;-26.094;27.994;2023-05-22T10:35:17;84998.17;;;32.16;8.20
73974;BME280;62336;-26.094;27.994;2023-05-22T10:37:43;84991.62;;;32.31;7.57
73974;BME280;62336;-26.094;27.994;2023-05-22T10:40:01;84984.45;;;32.20;7.81
73974;BME280;62336;-26.094;27.994;2023-05-22T10:42:24;84976.41;;;32.16;7.04
73974;BME280;62336;-26.094;27.994;2023-05-22T10:44:49;84974.17;;;32.22;7.56
73974;BME280;62336;-26.094;27.994;2023-05-22T10:47:15;84968.62;;;32.63;7.59
73974;BME280;62336;-26.094;27.994;2023-05-22T10:49:43;84960.15;;;32.77;7.29
73974;BME280;62336;-26.094;27.994;2023-05-22T10:52:07;84956.25;;;32.25;7.38
73974;BME280;62336;-26.094;27.994;2023-05-22T10:54:39;84952.34;;;32.05;7.33
73974;BME280;62336;-26.094;27.994;2023-05-22T10:57:08;84945.41;;;32.13;7.85
73974;BME280;62336;-26.094;27.994;2023-05-22T11:01:45;84932.79;;;32.21;7.69
73974;BME280;62336;-26.094;27.994;2023-05-22T11:04:11;84938.14;;;32.35;7.31
73974;BME280;62336;-26.094;27.994;2023-05-22T11:06:38;84935.53;;;32.29;7.63
73974;BME280;62336;-26.094;27.994;2023-05-22T11:11:27;84920.85;;;32.28;7.90
73974;BME280;62336;-26.094;27.994;2023-05-22T11:16:18;84912.36;;;32.63;7.80
73974;BME280;62336;-26.094;27.994;2023-05-22T11:18:43;84905.42;;;32.30;7.79
73974;BME280;62336;-26.094;27.994;2023-05-22T11:21:10;84906.07;;;32.16;7.66
73974;BME280;62336;-26.094;27.994;2023-05-22T11:23:34;84905.40;;;32.23;7.67
73974;BME280;62336;-26.094;27.994;2023-05-22T11:28:24;84905.79;;;32.72;7.52
73974;BME280;62336;-26.094;27.994;2023-05-22T11:30:51;84905.17;;;32.74;7.67
73974;BME280;62336;-26.094;27.994;2023-05-22T11:33:17;84900.91;;;32.31;7.77
73974;BME280;62336;-26.094;27.994;2023-05-22T11:35:42;84896.40;;;32.72;7.80
73974;BME280;62336;-26.094;27.994;2023-05-22T11:38:07;84890.97;;;32.55;7.51
73974;BME280;62336;-26.094;27.994;2023-05-22T11:40:32;84882.71;;;32.76;7.44
73974;BME280;62336;-26.094;27.994;2023-05-22T11:42:58;84881.80;;;32.67;7.64
73974;BME280;62336;-26.094;27.994;2023-05-22T11:45:23;84879.79;;;32.15;7.51
73974;BME280;62336;-26.094;27.994;2023-05-22T11:47:48;84875.61;;;32.51;7.58
73974;BME280;62336;-26.094;27.994;2023-05-22T11:50:12;84875.64;;;32.51;7.64
73974;BME280;62336;-26.094;27.994;2023-05-22T11:52:40;84874.43;;;32.54;7.63
73974;BME280;62336;-26.094;27.994;2023-05-22T11:55:04;84873.28;;;32.63;8.02
73974;BME280;62336;-26.094;27.994;2023-05-22T11:57:28;84872.14;;;32.85;7.55
73974;BME280;62336;-26.094;27.994;2023-05-22T11:59:53;84870.27;;;32.54;7.59
73974;BME280;62336;-26.094;27.994;2023-05-22T12:02:18;84865.67;;;32.89;7.51
73974;BME280;62336;-26.094;27.994;2023-05-22T12:04:43;84866.79;;;33.05;7.81
73974;BME280;62336;-26.094;27.994;2023-05-22T12:07:08;84862.47;;;32.85;7.19
73974;BME280;62336;-26.094;27.994;2023-05-22T12:09:34;84858.66;;;33.10;6.69
73974;BME280;62336;-26.094;27.994;2023-05-22T12:12:00;84861.33;;;33.10;7.02
73974;BME280;62336;-26.094;27.994;2023-05-22T12:14:26;84858.89;;;32.55;7.42
73974;BME280;62336;-26.094;27.994;2023-05-22T12:16:51;84859.43;;;32.77;7.43
73974;BME280;62336;-26.094;27.994;2023-05-22T12:19:17;84852.91;;;32.61;7.21
73974;BME280;62336;-26.094;27.994;2023-05-22T12:21:44;84855.07;;;32.77;8.04
73974;BME280;62336;-26.094;27.994;2023-05-22T12:24:08;84851.07;;;32.92;7.55
73974;BME280;62336;-26.094;27.994;2023-05-22T12:26:34;84850.45;;;32.75;7.73
73974;BME280;62336;-26.094;27.994;2023-05-22T12:28:59;84843.45;;;33.24;7.02
73974;BME280;62336;-26.094;27.994;2023-05-22T12:31:24;84843.32;;;33.02;7.64
73974;BME280;62336;-26.094;27.994;2023-05-22T12:33:52;84843.51;;;33.07;7.72
73974;BME280;62336;-26.094;27.994;2023-05-22T12:36:15;84842.54;;;33.43;7.19
73974;BME280;62336;-26.094;27.994;2023-05-22T12:38:42;84845.00;;;33.11;7.49
73974;BME280;62336;-26.094;27.994;2023-05-22T12:41:07;84843.70;;;33.04;7.66
73974;BME280;62336;-26.094;27.994;2023-05-22T12:43:33;84845.00;;;32.83;7.71
73974;BME280;62336;-26.094;27.994;2023-05-22T12:45:58;84845.82;;;32.93;7.56
73974;BME280;62336;-26.094;27.994;2023-05-22T12:48:25;84847.48;;;33.21;7.33